sensor_id;sensor_type;location;lat;lon;timestamp;pressure;altitude;pressure_sealevel;temperature
69590;BMP180;56792;50.644;17.984;2023-03-15T00:00:09;98643.60;;;3.60
69590;BMP180;56792;50.644;17.984;2023-03-15T00:02:42;98655.20;;;3.60
69590;BMP180;56792;50.644;17.984;2023-03-15T00:05:15;98661.60;;;3.60
69590;BMP180;56792;50.644;17.984;2023-03-15T00:07:47;98670.80;;;3.60
69590;BMP180;56792;50.644;17.984;2023-03-15T00:10:20;98679.20;;;3.60
69590;BMP180;56792;50.644;17.984;2023-03-15T00:12:53;98695.00;;;3.60
69590;BMP180;56792;50.644;17.984;2023-03-15T00:15:25;98704.80;;;3.60
69590;BMP180;56792;50.644;17.984;2023-03-15T00:17:57;98705.40;;;3.50
69590;BMP180;56792;50.644;17.984;2023-03-15T00:20:32;98704.40;;;3.50
69590;BMP180;56792;50.644;17.984;2023-03-15T00:23:07;98708.60;;;3.50
69590;BMP180;56792;50.644;17.984;2023-03-15T00:25:42;98706.60;;;3.50
69590;BMP180;56792;50.644;17.984;2023-03-15T00:28:16;98712.60;;;3.50
69590;BMP180;56792;50.644;17.984;2023-03-15T00:30:48;98722.00;;;3.50
69590;BMP180;56792;50.644;17.984;2023-03-15T00:33:22;98726.20;;;3.50
69590;BMP180;56792;50.644;17.984;2023-03-15T00:35:54;98727.60;;;3.50
69590;BMP180;56792;50.644;17.984;2023-03-15T00:38:26;98727.40;;;3.50
69590;BMP180;56792;50.644;17.984;2023-03-15T00:40:58;98723.00;;;3.50
69590;BMP180;56792;50.644;17.984;2023-03-15T00:43:34;98716.40;;;3.44
69590;BMP180;56792;50.644;17.984;2023-03-15T00:46:08;98720.40;;;3.40
69590;BMP180;56792;50.644;17.984;2023-03-15T00:48:40;98724.00;;;3.40
69590;BMP180;56792;50.644;17.984;2023-03-15T00:51:15;98726.80;;;3.40
69590;BMP180;56792;50.644;17.984;2023-03-15T00:53:49;98733.20;;;3.40
69590;BMP180;56792;50.644;17.984;2023-03-15T00:56:25;98743.60;;;3.40
69590;BMP180;56792;50.644;17.984;2023-03-15T00:58:57;98751.40;;;3.34
69590;BMP180;56792;50.644;17.984;2023-03-15T01:01:31;98760.80;;;3.30
69590;BMP180;56792;50.644;17.984;2023-03-15T01:04:03;98774.40;;;3.30
69590;BMP180;56792;50.644;17.984;2023-03-15T01:06:36;98786.60;;;3.20
69590;BMP180;56792;50.644;17.984;2023-03-15T01:09:08;98795.20;;;3.20
69590;BMP180;56792;50.644;17.984;2023-03-15T01:11:40;98801.40;;;3.20
69590;BMP180;56792;50.644;17.984;2023-03-15T01:14:13;98787.80;;;3.20
69590;BMP180;56792;50.644;17.984;2023-03-15T01:16:46;98789.60;;;3.18
69590;BMP180;56792;50.644;17.984;2023-03-15T01:19:18;98798.20;;;3.12
69590;BMP180;56792;50.644;17.984;2023-03-15T01:21:50;98796.20;;;3.10
69590;BMP180;56792;50.644;17.984;2023-03-15T01:24:22;98811.00;;;3.10
69590;BMP180;56792;50.644;17.984;2023-03-15T01:26:54;98827.60;;;3.10
69590;BMP180;56792;50.644;17.984;2023-03-15T01:29:27;98830.00;;;3.10
69590;BMP180;56792;50.644;17.984;2023-03-15T01:31:59;98838.60;;;3.10
69590;BMP180;56792;50.644;17.984;2023-03-15T01:34:31;98842.40;;;3.10
69590;BMP180;56792;50.644;17.984;2023-03-15T01:37:03;98840.60;;;3.10
69590;BMP180;56792;50.644;17.984;2023-03-15T01:39:41;98837.40;;;3.10
69590;BMP180;56792;50.644;17.984;2023-03-15T01:42:13;98840.60;;;3.10
69590;BMP180;56792;50.644;17.984;2023-03-15T01:44:55;98842.20;;;3.10
69590;BMP180;56792;50.644;17.984;2023-03-15T01:47:30;98849.40;;;3.10
69590;BMP180;56792;50.644;17.984;2023-03-15T01:50:07;98848.60;;;3.08
69590;BMP180;56792;50.644;17.984;2023-03-15T01:52:43;98857.60;;;3.00
69590;BMP180;56792;50.644;17.984;2023-03-15T01:55:23;98865.20;;;3.00
69590;BMP180;56792;50.644;17.984;2023-03-15T01:58:10;98866.20;;;3.00
69590;BMP180;56792;50.644;17.984;2023-03-15T02:00:46;98864.60;;;3.00
69590;BMP180;56792;50.644;17.984;2023-03-15T02:03:22;98870.80;;;3.00
69590;BMP180;56792;50.644;17.984;2023-03-15T02:06:01;98880.60;;;3.00
69590;BMP180;56792;50.644;17.984;2023-03-15T02:08:48;98886.00;;;3.00
69590;BMP180;56792;50.644;17.984;2023-03-15T02:11:24;98895.80;;;3.00
69590;BMP180;56792;50.644;17.984;2023-03-15T02:13:58;98903.20;;;3.10
69590;BMP180;56792;50.644;17.984;2023-03-15T02:16:31;98911.00;;;3.10
69590;BMP180;56792;50.644;17.984;2023-03-15T02:19:11;98913.20;;;3.10
69590;BMP180;56792;50.644;17.984;2023-03-15T02:21:56;98908.00;;;3.10
69590;BMP180;56792;50.644;17.984;2023-03-15T02:24:40;98913.60;;;3.02
69590;BMP180;56792;50.644;17.984;2023-03-15T02:27:19;98910.00;;;3.00
69590;BMP180;56792;50.644;17.984;2023-03-15T02:29:53;98908.20;;;3.00
69590;BMP180;56792;50.644;17.984;2023-03-15T02:32:25;98904.60;;;2.92
69590;BMP180;56792;50.644;17.984;2023-03-15T02:35:00;98910.60;;;2.90
69590;BMP180;56792;50.644;17.984;2023-03-15T02:37:34;98911.80;;;2.90
69590;BMP180;56792;50.644;17.984;2023-03-15T02:40:20;98918.20;;;2.90
69590;BMP180;56792;50.644;17.984;2023-03-15T02:42:56;98921.60;;;2.82
69590;BMP180;56792;50.644;17.984;2023-03-15T02:45:32;98920.80;;;2.80
69590;BMP180;56792;50.644;17.984;2023-03-15T02:48:08;98927.60;;;2.80
69590;BMP180;56792;50.644;17.984;2023-03-15T02:50:41;98929.60;;;2.70
69590;BMP180;56792;50.644;17.984;2023-03-15T02:53:13;98935.00;;;2.70
69590;BMP180;56792;50.644;17.984;2023-03-15T02:55:45;98941.40;;;2.62
69590;BMP180;56792;50.644;17.984;2023-03-15T02:58:19;98943.60;;;2.60
69590;BMP180;56792;50.644;17.984;2023-03-15T03:00:53;98943.00;;;2.60
69590;BMP180;56792;50.644;17.984;2023-03-15T03:03:25;98950.00;;;2.50
69590;BMP180;56792;50.644;17.984;2023-03-15T03:05:57;98951.20;;;2.50
69590;BMP180;56792;50.644;17.984;2023-03-15T03:08:29;98952.00;;;2.50
69590;BMP180;56792;50.644;17.984;2023-03-15T03:11:02;98961.60;;;2.50
69590;BMP180;56792;50.644;17.984;2023-03-15T03:13:34;98963.20;;;2.50
69590;BMP180;56792;50.644;17.984;2023-03-15T03:16:09;98969.00;;;2.40
69590;BMP180;56792;50.644;17.984;2023-03-15T03:18:41;98966.80;;;2.40
69590;BMP180;56792;50.644;17.984;2023-03-15T03:21:14;98968.80;;;2.40
69590;BMP180;56792;50.644;17.984;2023-03-15T03:23:46;98977.20;;;2.40
69590;BMP180;56792;50.644;17.984;2023-03-15T03:26:20;98980.20;;;2.40
69590;BMP180;56792;50.644;17.984;2023-03-15T03:28:57;98979.60;;;2.36
69590;BMP180;56792;50.644;17.984;2023-03-15T03:31:31;98990.20;;;2.34
69590;BMP180;56792;50.644;17.984;2023-03-15T03:34:03;98999.00;;;2.30
69590;BMP180;56792;50.644;17.984;2023-03-15T03:36:35;99004.00;;;2.30
69590;BMP180;56792;50.644;17.984;2023-03-15T03:39:08;99009.40;;;2.30
69590;BMP180;56792;50.644;17.984;2023-03-15T03:41:40;99004.00;;;2.30
69590;BMP180;56792;50.644;17.984;2023-03-15T03:44:15;99002.00;;;2.30
69590;BMP180;56792;50.644;17.984;2023-03-15T03:46:47;99005.20;;;2.30
69590;BMP180;56792;50.644;17.984;2023-03-15T03:49:20;99010.00;;;2.30
69590;BMP180;56792;50.644;17.984;2023-03-15T03:51:52;99013.80;;;2.30
69590;BMP180;56792;50.644;17.984;2023-03-15T03:54:24;99013.00;;;2.28
69590;BMP180;56792;50.644;17.984;2023-03-15T03:56:56;99017.60;;;2.20
69590;BMP180;56792;50.644;17.984;2023-03-15T03:59:30;99013.00;;;2.20
69590;BMP180;56792;50.644;17.984;2023-03-15T04:02:07;99007.80;;;2.20
69590;BMP180;56792;50.644;17.984;2023-03-15T04:04:39;98997.40;;;2.20
69590;BMP180;56792;50.644;17.984;2023-03-15T04:07:16;98996.80;;;2.20
69590;BMP180;56792;50.644;17.984;2023-03-15T04:09:48;98998.80;;;2.20
69590;BMP180;56792;50.644;17.984;2023-03-15T04:12:21;98998.40;;;2.12
69590;BMP180;56792;50.644;17.984;2023-03-15T04:14:56;99000.60;;;2.14
69590;BMP180;56792;50.644;17.984;2023-03-15T04:17:31;99008.40;;;2.10
69590;BMP180;56792;50.644;17.984;2023-03-15T04:20:04;99010.00;;;2.10
69590;BMP180;56792;50.644;17.984;2023-03-15T04:22:41;99014.40;;;2.10
69590;BMP180;56792;50.644;17.984;2023-03-15T04:25:27;99017.80;;;2.10
69590;BMP180;56792;50.644;17.984;2023-03-15T04:28:11;99015.40;;;2.10
69590;BMP180;56792;50.644;17.984;2023-03-15T04:30:48;99011.80;;;2.10
69590;BMP180;56792;50.644;17.984;2023-03-15T04:33:42;99013.80;;;2.10
69590;BMP180;56792;50.644;17.984;2023-03-15T04:36:32;99016.40;;;2.06
69590;BMP180;56792;50.644;17.984;2023-03-15T04:39:13;99015.20;;;2.04
69590;BMP180;56792;50.644;17.984;2023-03-15T04:42:04;99022.60;;;2.00
69590;BMP180;56792;50.644;17.984;2023-03-15T04:44:45;99038.40;;;2.00
69590;BMP180;56792;50.644;17.984;2023-03-15T04:47:47;99055.00;;;2.00
69590;BMP180;56792;50.644;17.984;2023-03-15T04:50:58;99062.60;;;2.00
69590;BMP180;56792;50.644;17.984;2023-03-15T04:53:48;99066.40;;;2.00
69590;BMP180;56792;50.644;17.984;2023-03-15T04:56:55;99068.60;;;2.00
69590;BMP180;56792;50.644;17.984;2023-03-15T04:59:45;99061.40;;;2.00
69590;BMP180;56792;50.644;17.984;2023-03-15T05:02:36;99075.80;;;1.94
69590;BMP180;56792;50.644;17.984;2023-03-15T05:05:46;99080.20;;;1.90
69590;BMP180;56792;50.644;17.984;2023-03-15T05:08:38;99076.80;;;1.90
69590;BMP180;56792;50.644;17.984;2023-03-15T05:11:23;99077.60;;;1.80
69590;BMP180;56792;50.644;17.984;2023-03-15T05:14:34;99077.00;;;1.80
69590;BMP180;56792;50.644;17.984;2023-03-15T05:17:26;99075.60;;;1.72
69590;BMP180;56792;50.644;17.984;2023-03-15T05:20:20;99072.80;;;1.70
69590;BMP180;56792;50.644;17.984;2023-03-15T05:23:13;99079.00;;;1.70
69590;BMP180;56792;50.644;17.984;2023-03-15T05:25:54;99082.00;;;1.62
69590;BMP180;56792;50.644;17.984;2023-03-15T05:28:47;99081.60;;;1.60
69590;BMP180;56792;50.644;17.984;2023-03-15T05:31:40;99087.80;;;1.60
69590;BMP180;56792;50.644;17.984;2023-03-15T05:34:27;99092.80;;;1.60
69590;BMP180;56792;50.644;17.984;2023-03-15T05:37:04;99102.80;;;1.60
69590;BMP180;56792;50.644;17.984;2023-03-15T05:40:07;99110.40;;;1.60
69590;BMP180;56792;50.644;17.984;2023-03-15T05:42:57;99111.00;;;1.60
69590;BMP180;56792;50.644;17.984;2023-03-15T05:46:02;99107.80;;;1.70
69590;BMP180;56792;50.644;17.984;2023-03-15T05:49:03;99118.00;;;1.70
69590;BMP180;56792;50.644;17.984;2023-03-15T05:51:51;99113.00;;;1.74
69590;BMP180;56792;50.644;17.984;2023-03-15T05:54:43;99109.40;;;1.80
69590;BMP180;56792;50.644;17.984;2023-03-15T05:57:48;99111.80;;;1.84
69590;BMP180;56792;50.644;17.984;2023-03-15T06:00:55;99114.60;;;1.90
69590;BMP180;56792;50.644;17.984;2023-03-15T06:03:39;99118.80;;;2.00
69590;BMP180;56792;50.644;17.984;2023-03-15T06:06:15;99119.80;;;2.00
69590;BMP180;56792;50.644;17.984;2023-03-15T06:08:48;99118.80;;;2.10
69590;BMP180;56792;50.644;17.984;2023-03-15T06:11:20;99129.60;;;2.10
69590;BMP180;56792;50.644;17.984;2023-03-15T06:13:53;99138.60;;;2.20
69590;BMP180;56792;50.644;17.984;2023-03-15T06:16:51;99141.60;;;2.20
69590;BMP180;56792;50.644;17.984;2023-03-15T06:19:23;99148.40;;;2.30
69590;BMP180;56792;50.644;17.984;2023-03-15T06:21:57;99154.80;;;2.30
69590;BMP180;56792;50.644;17.984;2023-03-15T06:24:37;99163.60;;;2.40
69590;BMP180;56792;50.644;17.984;2023-03-15T06:27:09;99177.60;;;2.40
69590;BMP180;56792;50.644;17.984;2023-03-15T06:29:41;99183.20;;;2.40
69590;BMP180;56792;50.644;17.984;2023-03-15T06:32:14;99191.60;;;2.50
69590;BMP180;56792;50.644;17.984;2023-03-15T06:34:46;99192.40;;;2.50
69590;BMP180;56792;50.644;17.984;2023-03-15T06:37:19;99208.60;;;2.56
69590;BMP180;56792;50.644;17.984;2023-03-15T06:39:51;99212.60;;;2.60
69590;BMP180;56792;50.644;17.984;2023-03-15T06:42:24;99213.00;;;2.70
69590;BMP180;56792;50.644;17.984;2023-03-15T06:44:56;99215.40;;;2.70
69590;BMP180;56792;50.644;17.984;2023-03-15T06:47:28;99222.00;;;2.80
69590;BMP180;56792;50.644;17.984;2023-03-15T06:50:01;99227.00;;;2.80
69590;BMP180;56792;50.644;17.984;2023-03-15T06:52:33;99236.80;;;2.90
69590;BMP180;56792;50.644;17.984;2023-03-15T06:55:08;99245.20;;;2.90
69590;BMP180;56792;50.644;17.984;2023-03-15T06:57:43;99247.40;;;3.00
69590;BMP180;56792;50.644;17.984;2023-03-15T07:00:19;99246.20;;;3.10
69590;BMP180;56792;50.644;17.984;2023-03-15T07:02:52;99253.80;;;3.20
69590;BMP180;56792;50.644;17.984;2023-03-15T07:05:25;99261.40;;;3.30
69590;BMP180;56792;50.644;17.984;2023-03-15T07:07:59;99264.00;;;3.30
69590;BMP180;56792;50.644;17.984;2023-03-15T07:10:32;99265.40;;;3.40
69590;BMP180;56792;50.644;17.984;2023-03-15T07:13:04;99272.00;;;3.50
69590;BMP180;56792;50.644;17.984;2023-03-15T07:15:38;99272.00;;;3.60
69590;BMP180;56792;50.644;17.984;2023-03-15T07:18:11;99276.80;;;3.70
69590;BMP180;56792;50.644;17.984;2023-03-15T07:20:44;99283.60;;;3.80
69590;BMP180;56792;50.644;17.984;2023-03-15T07:23:17;99277.40;;;3.82
69590;BMP180;56792;50.644;17.984;2023-03-15T07:25:49;99280.00;;;3.90
69590;BMP180;56792;50.644;17.984;2023-03-15T07:28:23;99289.40;;;4.00
69590;BMP180;56792;50.644;17.984;2023-03-15T07:31:00;99292.80;;;4.10
69590;BMP180;56792;50.644;17.984;2023-03-15T07:33:34;99294.60;;;4.12
69590;BMP180;56792;50.644;17.984;2023-03-15T07:36:09;99295.20;;;4.22
69590;BMP180;56792;50.644;17.984;2023-03-15T07:38:41;99301.00;;;4.38
69590;BMP180;56792;50.644;17.984;2023-03-15T07:41:14;99303.20;;;4.40
69590;BMP180;56792;50.644;17.984;2023-03-15T07:43:54;99319.00;;;4.54
69590;BMP180;56792;50.644;17.984;2023-03-15T07:46:26;99325.20;;;4.70
69590;BMP180;56792;50.644;17.984;2023-03-15T07:48:58;99329.20;;;4.90
69590;BMP180;56792;50.644;17.984;2023-03-15T07:51:31;99329.00;;;5.00
69590;BMP180;56792;50.644;17.984;2023-03-15T07:54:03;99334.40;;;5.10
69590;BMP180;56792;50.644;17.984;2023-03-15T07:56:35;99333.60;;;5.20
69590;BMP180;56792;50.644;17.984;2023-03-15T07:59:08;99335.80;;;5.30
69590;BMP180;56792;50.644;17.984;2023-03-15T08:01:41;99344.00;;;5.50
69590;BMP180;56792;50.644;17.984;2023-03-15T08:04:13;99349.40;;;5.60
69590;BMP180;56792;50.644;17.984;2023-03-15T08:06:45;99352.40;;;5.74
69590;BMP180;56792;50.644;17.984;2023-03-15T08:09:18;99354.60;;;5.90
69590;BMP180;56792;50.644;17.984;2023-03-15T08:11:50;99354.40;;;6.00
69590;BMP180;56792;50.644;17.984;2023-03-15T08:14:22;99350.80;;;6.12
69590;BMP180;56792;50.644;17.984;2023-03-15T08:16:55;99356.40;;;6.30
69590;BMP180;56792;50.644;17.984;2023-03-15T08:19:28;99361.40;;;6.40
69590;BMP180;56792;50.644;17.984;2023-03-15T08:22:00;99371.00;;;6.50
69590;BMP180;56792;50.644;17.984;2023-03-15T08:24:33;99373.20;;;6.60
69590;BMP180;56792;50.644;17.984;2023-03-15T08:27:06;99371.00;;;6.60
69590;BMP180;56792;50.644;17.984;2023-03-15T08:29:39;99368.80;;;6.80
69590;BMP180;56792;50.644;17.984;2023-03-15T08:32:14;99368.40;;;6.90
69590;BMP180;56792;50.644;17.984;2023-03-15T08:34:47;99373.40;;;6.90
69590;BMP180;56792;50.644;17.984;2023-03-15T08:37:19;99379.00;;;6.90
69590;BMP180;56792;50.644;17.984;2023-03-15T08:39:52;99380.60;;;6.90
69590;BMP180;56792;50.644;17.984;2023-03-15T08:42:31;99379.60;;;7.00
69590;BMP180;56792;50.644;17.984;2023-03-15T08:45:04;99376.20;;;7.02
69590;BMP180;56792;50.644;17.984;2023-03-15T08:47:38;99381.20;;;7.10
69590;BMP180;56792;50.644;17.984;2023-03-15T08:50:15;99387.80;;;7.30
69590;BMP180;56792;50.644;17.984;2023-03-15T08:52:48;99403.40;;;7.30
69590;BMP180;56792;50.644;17.984;2023-03-15T08:55:21;99406.40;;;7.40
69590;BMP180;56792;50.644;17.984;2023-03-15T08:57:53;99410.60;;;7.40
69590;BMP180;56792;50.644;17.984;2023-03-15T09:00:26;99410.40;;;7.50
69590;BMP180;56792;50.644;17.984;2023-03-15T09:02:59;99406.20;;;7.50
69590;BMP180;56792;50.644;17.984;2023-03-15T09:05:31;99413.60;;;7.60
69590;BMP180;56792;50.644;17.984;2023-03-15T09:08:04;99409.80;;;7.60
69590;BMP180;56792;50.644;17.984;2023-03-15T09:10:37;99412.60;;;7.70
69590;BMP180;56792;50.644;17.984;2023-03-15T09:13:09;99412.60;;;7.90
69590;BMP180;56792;50.644;17.984;2023-03-15T09:15:41;99418.00;;;8.20
69590;BMP180;56792;50.644;17.984;2023-03-15T09:18:13;99415.60;;;8.62
69590;BMP180;56792;50.644;17.984;2023-03-15T09:20:46;99421.20;;;9.00
69590;BMP180;56792;50.644;17.984;2023-03-15T09:23:18;99422.40;;;9.00
69590;BMP180;56792;50.644;17.984;2023-03-15T09:25:50;99417.40;;;8.90
69590;BMP180;56792;50.644;17.984;2023-03-15T09:28:23;99414.00;;;8.70
69590;BMP180;56792;50.644;17.984;2023-03-15T09:30:56;99409.00;;;8.46
69590;BMP180;56792;50.644;17.984;2023-03-15T09:33:28;99412.20;;;8.30
69590;BMP180;56792;50.644;17.984;2023-03-15T09:36:03;99421.60;;;8.20
69590;BMP180;56792;50.644;17.984;2023-03-15T09:38:36;99429.00;;;8.10
69590;BMP180;56792;50.644;17.984;2023-03-15T09:41:17;99416.20;;;8.00
69590;BMP180;56792;50.644;17.984;2023-03-15T09:44:10;99429.40;;;7.80
69590;BMP180;56792;50.644;17.984;2023-03-15T09:46:54;99427.40;;;7.80
69590;BMP180;56792;50.644;17.984;2023-03-15T09:49:43;99431.60;;;7.70
69590;BMP180;56792;50.644;17.984;2023-03-15T09:52:28;99430.00;;;7.70
69590;BMP180;56792;50.644;17.984;2023-03-15T09:55:05;99426.80;;;7.80
69590;BMP180;56792;50.644;17.984;2023-03-15T09:57:47;99423.20;;;8.00
69590;BMP180;56792;50.644;17.984;2023-03-15T10:00:29;99428.00;;;7.90
69590;BMP180;56792;50.644;17.984;2023-03-15T10:03:04;99431.40;;;7.80
69590;BMP180;56792;50.644;17.984;2023-03-15T10:05:44;99425.40;;;7.64
69590;BMP180;56792;50.644;17.984;2023-03-15T10:08:19;99428.80;;;7.50
69590;BMP180;56792;50.644;17.984;2023-03-15T10:10:59;99428.20;;;7.50
69590;BMP180;56792;50.644;17.984;2023-03-15T10:13:54;99426.20;;;7.40
69590;BMP180;56792;50.644;17.984;2023-03-15T10:16:43;99432.40;;;7.40
69590;BMP180;56792;50.644;17.984;2023-03-15T10:19:27;99430.60;;;7.40
69590;BMP180;56792;50.644;17.984;2023-03-15T10:22:21;99431.80;;;7.40
69590;BMP180;56792;50.644;17.984;2023-03-15T10:25:01;99434.20;;;7.40
69590;BMP180;56792;50.644;17.984;2023-03-15T10:27:54;99431.60;;;7.42
69590;BMP180;56792;50.644;17.984;2023-03-15T10:30:31;99441.00;;;7.50
69590;BMP180;56792;50.644;17.984;2023-03-15T10:33:14;99446.60;;;7.64
69590;BMP180;56792;50.644;17.984;2023-03-15T10:35:49;99444.20;;;7.60
69590;BMP180;56792;50.644;17.984;2023-03-15T10:38:23;99444.40;;;7.70
69590;BMP180;56792;50.644;17.984;2023-03-15T10:40:58;99448.80;;;7.80
69590;BMP180;56792;50.644;17.984;2023-03-15T10:43:33;99441.20;;;7.90
69590;BMP180;56792;50.644;17.984;2023-03-15T10:46:10;99446.00;;;7.92
69590;BMP180;56792;50.644;17.984;2023-03-15T10:48:57;99448.60;;;7.96
69590;BMP180;56792;50.644;17.984;2023-03-15T10:51:33;99449.20;;;7.88
69590;BMP180;56792;50.644;17.984;2023-03-15T10:54:14;99442.60;;;7.90
69590;BMP180;56792;50.644;17.984;2023-03-15T10:56:50;99439.40;;;8.10
69590;BMP180;56792;50.644;17.984;2023-03-15T10:59:30;99443.80;;;8.30
69590;BMP180;56792;50.644;17.984;2023-03-15T11:02:23;99442.00;;;8.52
69590;BMP180;56792;50.644;17.984;2023-03-15T11:05:15;99444.00;;;8.60
69590;BMP180;56792;50.644;17.984;2023-03-15T11:07:58;99447.80;;;8.60
69590;BMP180;56792;50.644;17.984;2023-03-15T11:10:35;99444.20;;;8.50
69590;BMP180;56792;50.644;17.984;2023-03-15T11:13:19;99450.20;;;8.50
69590;BMP180;56792;50.644;17.984;2023-03-15T11:16:02;99447.80;;;8.50
69590;BMP180;56792;50.644;17.984;2023-03-15T11:18:41;99452.20;;;8.50
69590;BMP180;56792;50.644;17.984;2023-03-15T11:21:17;99456.00;;;8.70
69590;BMP180;56792;50.644;17.984;2023-03-15T11:23:52;99459.00;;;8.90
69590;BMP180;56792;50.644;17.984;2023-03-15T11:26:26;99457.80;;;9.36
69590;BMP180;56792;50.644;17.984;2023-03-15T11:29:04;99455.40;;;9.46
69590;BMP180;56792;50.644;17.984;2023-03-15T11:31:38;99460.00;;;9.66
69590;BMP180;56792;50.644;17.984;2023-03-15T11:34:21;99459.80;;;9.98
69590;BMP180;56792;50.644;17.984;2023-03-15T11:37:02;99454.40;;;9.90
69590;BMP180;56792;50.644;17.984;2023-03-15T11:39:42;99449.80;;;9.92
69590;BMP180;56792;50.644;17.984;2023-03-15T11:42:23;99451.20;;;10.14
69590;BMP180;56792;50.644;17.984;2023-03-15T11:45:03;99449.80;;;10.20
69590;BMP180;56792;50.644;17.984;2023-03-15T11:47:45;99445.60;;;10.40
69590;BMP180;56792;50.644;17.984;2023-03-15T11:50:18;99446.80;;;11.14
69590;BMP180;56792;50.644;17.984;2023-03-15T11:52:54;99443.40;;;11.60
69590;BMP180;56792;50.644;17.984;2023-03-15T11:55:32;99442.80;;;12.00
69590;BMP180;56792;50.644;17.984;2023-03-15T11:58:31;99440.20;;;12.22
69590;BMP180;56792;50.644;17.984;2023-03-15T12:01:10;99438.00;;;12.60
69590;BMP180;56792;50.644;17.984;2023-03-15T12:04:39;99441.60;;;13.10
69590;BMP180;56792;50.644;17.984;2023-03-15T12:10:54;99441.20;;;13.72
69590;BMP180;56792;50.644;17.984;2023-03-15T12:13:29;99436.40;;;13.72
69590;BMP180;56792;50.644;17.984;2023-03-15T12:15:59;99442.40;;;13.96
69590;BMP180;56792;50.644;17.984;2023-03-15T12:18:38;99447.20;;;14.40
69590;BMP180;56792;50.644;17.984;2023-03-15T12:21:16;99450.00;;;15.00
69590;BMP180;56792;50.644;17.984;2023-03-15T12:23:58;99455.00;;;14.82
69590;BMP180;56792;50.644;17.984;2023-03-15T12:26:44;99450.80;;;14.30
69590;BMP180;56792;50.644;17.984;2023-03-15T12:29:20;99454.00;;;14.00
69590;BMP180;56792;50.644;17.984;2023-03-15T12:31:59;99451.40;;;13.62
69590;BMP180;56792;50.644;17.984;2023-03-15T12:34:45;99453.00;;;13.30
69590;BMP180;56792;50.644;17.984;2023-03-15T12:37:19;99453.20;;;13.20
69590;BMP180;56792;50.644;17.984;2023-03-15T12:40:00;99455.00;;;12.90
69590;BMP180;56792;50.644;17.984;2023-03-15T12:43:01;99456.60;;;12.70
69590;BMP180;56792;50.644;17.984;2023-03-15T12:45:46;99464.20;;;12.12
69590;BMP180;56792;50.644;17.984;2023-03-15T12:48:28;99460.00;;;11.74
69590;BMP180;56792;50.644;17.984;2023-03-15T12:51:10;99462.80;;;11.50
69590;BMP180;56792;50.644;17.984;2023-03-15T12:53:50;99465.20;;;11.54
69590;BMP180;56792;50.644;17.984;2023-03-15T12:56:38;99464.80;;;11.60
69590;BMP180;56792;50.644;17.984;2023-03-15T12:59:24;99470.40;;;11.46
69590;BMP180;56792;50.644;17.984;2023-03-15T13:01:56;99472.20;;;11.50
69590;BMP180;56792;50.644;17.984;2023-03-15T13:04:30;99469.80;;;11.58
69590;BMP180;56792;50.644;17.984;2023-03-15T13:07:19;99472.20;;;11.26
69590;BMP180;56792;50.644;17.984;2023-03-15T13:10:21;99474.00;;;11.10
69590;BMP180;56792;50.644;17.984;2023-03-15T13:13:09;99476.80;;;11.00
69590;BMP180;56792;50.644;17.984;2023-03-15T13:18:48;99477.20;;;11.40
69590;BMP180;56792;50.644;17.984;2023-03-15T13:21:30;99480.20;;;11.32
69590;BMP180;56792;50.644;17.984;2023-03-15T13:24:02;99473.00;;;11.50
69590;BMP180;56792;50.644;17.984;2023-03-15T13:26:52;99484.20;;;11.80
69590;BMP180;56792;50.644;17.984;2023-03-15T13:29:29;99477.40;;;12.44
69590;BMP180;56792;50.644;17.984;2023-03-15T13:32:14;99475.60;;;13.98
69590;BMP180;56792;50.644;17.984;2023-03-15T13:34:47;99481.00;;;16.04
69590;BMP180;56792;50.644;17.984;2023-03-15T13:37:22;99488.60;;;16.80
